Time;durP1;ratioP1;P1;durP2;ratioP2;P2;SDS_P1;SDS_P2;PMS_P1;PMS_P2;Temp;Humidity;BMP_temperature;BMP_pressure;BME280_temperature;BME280_humidity;BME280_pressure;Samples;Min_cycle;Max_cycle;Signal;HPM_P1;HPM_P2
2023/03/17 00:02:25;;;;;;;7.20;3.83;;;5.10;99.90;;;;;;5000389;28;20031;-80
2023/03/17 00:05:10;;;;;;;6.53;3.25;;;7.60;99.90;;;;;;5001011;28;20030;-79
2023/03/17 00:07:49;;;;;;;7.10;3.72;;;7.80;99.90;;;;;;5009847;28;20035;-80
2023/03/17 00:10:23;;;;;;;11.77;4.65;;;8.10;99.90;;;;;;5004676;28;20031;-81
2023/03/17 00:12:59;;;;;;;6.03;3.60;;;7.60;99.90;;;;;;5020510;28;20028;-79
2023/03/17 00:15:26;;;;;;;8.32;3.80;;;6.90;99.90;;;;;;4986256;28;20524;-80
2023/03/17 00:17:58;;;;;;;6.03;3.53;;;8.00;99.90;;;;;;4997015;28;20390;-81
2023/03/17 00:20:31;;;;;;;7.13;3.63;;;7.60;99.90;;;;;;5004183;28;20018;-79
2023/03/17 00:23:04;;;;;;;8.88;3.60;;;7.60;99.90;;;;;;5005877;28;20033;-81
2023/03/17 00:25:33;;;;;;;5.60;3.10;;;7.60;99.90;;;;;;5010040;28;20019;-80
2023/03/17 00:28:03;;;;;;;6.40;3.25;;;7.60;99.90;;;;;;5001200;28;20038;-80
2023/03/17 00:30:29;;;;;;;7.07;3.40;;;;;;;;;;5004926;28;20052;-80
2023/03/17 00:33:04;;;;;;;5.55;3.13;;;7.60;99.90;;;;;;5008132;28;20511;-80
2023/03/17 00:35:32;;;;;;;5.50;2.92;;;7.60;99.90;;;;;;5007954;28;20108;-81
2023/03/17 00:37:58;;;;;;;8.40;3.10;;;;;;;;;;4997649;28;20050;-79
2023/03/17 00:40:31;;;;;;;7.10;2.90;;;7.60;99.90;;;;;;5004140;28;20095;-80
2023/03/17 00:43:04;;;;;;;5.10;2.90;;;7.60;99.90;;;;;;5010362;28;20473;-79
2023/03/17 00:45:31;;;;;;;7.75;2.92;;;;;;;;;;5002762;28;20023;-79
2023/03/17 00:47:58;;;;;;;9.00;3.25;;;;;;;;;;4996986;28;20026;-79
2023/03/17 00:50:30;;;;;;;5.38;3.35;;;7.50;99.90;;;;;;5000885;28;20037;-78
2023/03/17 00:52:57;;;;;;;6.82;3.03;;;7.50;99.90;;;;;;4991202;28;20039;-80
2023/03/17 00:55:26;;;;;;;4.78;2.75;;;7.50;99.90;;;;;;5038232;22;20069;-83
2023/03/17 00:57:52;;;;;;;5.90;3.22;;;7.50;99.90;;;;;;5034543;28;20032;-86
2023/03/17 01:00:28;;;;;;;5.88;3.00;;;6.80;99.90;;;;;;5030929;28;20026;-85
2023/03/17 01:02:56;;;;;;;4.20;2.80;;;9.90;99.90;;;;;;5014229;28;20026;-88
2023/03/17 01:05:24;;;;;;;6.22;3.05;;;7.70;99.90;;;;;;5026962;28;20006;-88
2023/03/17 01:07:54;;;;;;;6.75;3.10;;;7.40;99.90;;;;;;5033537;28;21402;-86
2023/03/17 01:10:25;;;;;;;6.22;2.72;;;10.20;99.90;;;;;;5025266;28;20034;-87
2023/03/17 01:12:52;;;;;;;5.40;3.25;;;7.40;99.90;;;;;;5025247;28;20030;-88
2023/03/17 01:15:21;;;;;;;6.13;3.28;;;7.50;99.90;;;;;;5024428;28;20062;-85
2023/03/17 01:17:49;;;;;;;7.30;3.33;;;7.30;99.90;;;;;;5019748;28;20017;-89
2023/03/17 01:20:18;;;;;;;6.82;3.60;;;7.40;99.90;;;;;;5015026;28;20100;-86
2023/03/17 01:22:44;;;;;;;8.13;3.40;;;9.30;99.90;;;;;;5012973;28;20060;-85
2023/03/17 01:25:11;;;;;;;7.32;3.35;;;7.30;99.90;;;;;;5031195;28;20034;-86
2023/03/17 01:27:40;;;;;;;5.03;3.10;;;8.30;99.90;;;;;;5034055;28;20036;-87
2023/03/17 01:30:13;;;;;;;6.07;3.50;;;7.20;99.90;;;;;;5028481;28;20042;-89
2023/03/17 01:32:38;;;;;;;8.02;3.45;;;7.20;99.90;;;;;;5036167;28;20030;-89
2023/03/17 01:35:05;;;;;;;5.50;3.40;;;;;;;;;;5029821;28;20029;-87
2023/03/17 01:37:31;;;;;;;5.63;3.28;;;7.00;99.90;;;;;;5029171;28;20062;-89
2023/03/17 01:39:58;;;;;;;6.43;3.35;;;;;;;;;;5034962;28;20946;-89
2023/03/17 01:42:24;;;;;;;6.95;3.25;;;7.00;99.90;;;;;;5033087;28;20037;-83
2023/03/17 01:45:06;;;;;;;7.55;3.63;;;6.90;99.90;;;;;;5028891;28;20081;-88
2023/03/17 01:47:32;;;;;;;7.53;3.50;;;6.80;99.90;;;;;;5027422;28;20057;-85
2023/03/17 01:50:05;;;;;;;6.00;3.15;;;6.90;99.90;;;;;;5010000;28;20034;-85
2023/03/17 01:52:34;;;;;;;5.72;3.15;;;6.80;99.90;;;;;;5021675;28;20049;-91
2023/03/17 01:55:08;;;;;;;6.55;3.08;;;6.80;99.90;;;;;;5026025;28;20041;-86
2023/03/17 01:57:40;;;;;;;5.75;3.22;;;6.80;99.90;;;;;;5027441;28;20034;-83
2023/03/17 02:00:16;;;;;;;6.72;3.25;;;6.70;99.90;;;;;;5027943;28;20026;-87
2023/03/17 02:02:51;;;;;;;6.45;3.45;;;5.50;99.90;;;;;;5019962;28;20022;-87
2023/03/17 02:05:20;;;;;;;6.93;3.55;;;6.70;99.90;;;;;;5028002;28;20034;-85
2023/03/17 02:07:53;;;;;;;5.78;3.10;;;;;;;;;;5029693;28;20022;-85
2023/03/17 02:10:21;;;;;;;5.60;3.50;;;6.60;99.90;;;;;;5028814;28;20041;-85
2023/03/17 02:12:52;;;;;;;5.80;3.25;;;6.50;99.90;;;;;;5030953;28;20049;-84
2023/03/17 02:15:17;;;;;;;;;;;6.60;99.90;;;;;;5050645;28;20034;-87
2023/03/17 02:17:56;;;;;;;6.90;3.42;;;;;;;;;;5034232;28;19914;-86
2023/03/17 02:20:23;;;;;;;6.93;3.35;;;;;;;;;;5034233;28;20061;-86
2023/03/17 02:22:53;;;;;;;8.95;3.97;;;6.50;99.90;;;;;;5027575;28;20044;-82
2023/03/17 02:25:22;;;;;;;6.03;3.53;;;6.50;99.90;;;;;;5027310;28;20049;-84
2023/03/17 02:27:52;;;;;;;6.13;3.13;;;6.40;99.90;;;;;;5028878;28;20061;-84
2023/03/17 02:30:22;;;;;;;15.82;3.88;;;6.40;99.90;;;;;;5010841;28;20046;-88
2023/03/17 02:32:49;;;;;;;6.70;3.30;;;;;;;;;;5027895;28;20029;-82
2023/03/17 02:35:19;;;;;;;7.57;3.75;;;6.40;99.90;;;;;;5026477;28;20284;-83
2023/03/17 02:37:45;;;;;;;9.10;3.67;;;6.40;99.90;;;;;;5027992;28;20060;-84
2023/03/17 02:40:13;;;;;;;6.70;4.00;;;7.10;99.90;;;;;;5028573;28;20030;-88
2023/03/17 02:42:40;;;;;;;8.25;3.65;;;6.10;99.90;;;;;;5032004;28;20030;-87
2023/03/17 02:45:07;;;;;;;7.70;3.85;;;7.50;99.90;;;;;;5012836;28;20037;-84
2023/03/17 02:47:34;;;;;;;5.32;3.20;;;;;;;;;;5028147;28;20026;-85
2023/03/17 02:50:01;;;;;;;6.93;3.72;;;6.00;99.90;;;;;;5029412;28;20057;-88
2023/03/17 02:52:27;;;;;;;9.35;3.53;;;6.10;99.90;;;;;;5025119;28;20035;-86
2023/03/17 02:54:52;;;;;;;5.60;3.47;;;6.30;99.90;;;;;;5034146;28;20033;-88
2023/03/17 02:57:18;;;;;;;7.03;3.40;;;7.40;99.90;;;;;;5019940;28;20094;-83
2023/03/17 02:59:47;;;;;;;7.55;3.92;;;5.60;99.90;;;;;;5029881;28;20022;-87
2023/03/17 03:02:15;;;;;;;5.95;3.70;;;;;;;;;;5030005;28;20030;-86
2023/03/17 03:04:42;;;;;;;7.43;3.65;;;;;;;;;;5027417;28;20040;-86
2023/03/17 03:07:08;;;;;;;9.35;3.92;;;;;;;;;;5028224;28;20057;-87
2023/03/17 03:09:38;;;;;;;6.40;3.65;;;5.90;99.90;;;;;;5033759;28;20053;-89
2023/03/17 03:12:03;;;;;;;7.72;3.80;;;7.50;99.90;;;;;;5031562;28;20033;-86
2023/03/17 03:14:31;;;;;;;7.88;3.58;;;5.80;99.90;;;;;;5028317;28;20084;-88
2023/03/17 03:16:57;;;;;;;7.05;3.80;;;8.10;99.90;;;;;;5029549;28;20072;-88
2023/03/17 03:19:23;;;;;;;7.60;4.07;;;;;;;;;;5014701;28;20022;-89
2023/03/17 03:21:49;;;;;;;8.65;4.78;;;5.70;99.90;;;;;;5025400;28;20021;-86
2023/03/17 03:24:14;;;;;;;6.97;4.13;;;8.30;99.90;;;;;;5028824;28;20014;-89
2023/03/17 03:26:41;;;;;;;7.75;4.47;;;8.60;99.90;;;;;;5030851;28;20065;-85
2023/03/17 03:29:08;;;;;;;7.60;3.95;;;5.60;99.90;;;;;;5046022;28;20037;-87
2023/03/17 03:31:35;;;;;;;8.82;4.15;;;;;;;;;;5016241;28;20130;-88
2023/03/17 03:34:01;;;;;;;10.05;4.85;;;;;;;;;;5027241;28;20046;-83
2023/03/17 03:36:27;;;;;;;8.57;4.18;;;5.60;99.90;;;;;;5027245;28;20022;-87
2023/03/17 03:38:53;;;;;;;7.13;4.18;;;;;;;;;;5031057;28;20072;-88
2023/03/17 03:41:19;;;;;;;11.15;4.25;;;5.50;99.90;;;;;;5031403;28;20006;-89
2023/03/17 03:43:44;;;;;;;7.10;3.65;;;6.80;99.90;;;;;;5029996;28;20029;-84
2023/03/17 03:46:10;;;;;;;6.72;3.53;;;6.80;99.90;;;;;;5014329;28;20430;-87
2023/03/17 03:48:36;;;;;;;7.63;3.50;;;5.50;99.90;;;;;;5035041;28;20014;-87
2023/03/17 03:51:02;;;;;;;7.28;4.03;;;5.40;99.90;;;;;;5029525;28;20038;-87
2023/03/17 03:53:29;;;;;;;6.97;3.70;;;5.40;99.90;;;;;;5014308;28;20038;-88
2023/03/17 03:55:56;;;;;;;7.93;3.80;;;5.40;99.90;;;;;;5027905;28;20093;-85
2023/03/17 03:58:22;;;;;;;6.88;3.65;;;5.50;99.90;;;;;;5021102;28;20040;-84
2023/03/17 04:00:49;;;;;;;11.68;4.10;;;4.00;99.90;;;;;;5017186;28;20034;-84
2023/03/17 04:03:15;;;;;;;6.72;3.67;;;5.30;99.90;;;;;;5021477;28;20025;-82
2023/03/17 04:05:41;;;;;;;7.18;3.92;;;7.80;99.90;;;;;;5024051;28;20171;-84
2023/03/17 04:08:07;;;;;;;6.97;3.95;;;;;;;;;;5019449;28;20026;-86
2023/03/17 04:10:33;;;;;;;7.07;4.13;;;;;;;;;;5014910;28;20098;-82
2023/03/17 04:13:00;;;;;;;8.73;4.28;;;5.30;99.90;;;;;;5018064;28;20025;-82
2023/03/17 04:15:26;;;;;;;7.43;3.85;;;5.40;99.90;;;;;;5017475;28;20034;-84
2023/03/17 04:17:53;;;;;;;8.48;4.20;;;5.30;99.90;;;;;;5016874;28;20036;-83
2023/03/17 04:20:20;;;;;;;9.27;4.20;;;5.70;99.90;;;;;;5021755;28;20021;-83
2023/03/17 04:22:46;;;;;;;6.32;4.07;;;5.20;99.90;;;;;;5021757;28;20103;-86
2023/03/17 04:25:13;;;;;;;8.57;4.07;;;4.80;99.90;;;;;;5024113;28;21275;-82
2023/03/17 04:27:40;;;;;;;8.15;4.13;;;6.20;99.90;;;;;;5020864;28;20407;-83
2023/03/17 04:30:07;;;;;;;10.25;3.97;;;7.20;99.90;;;;;;5023400;28;20030;-83
2023/03/17 04:32:33;;;;;;;5.90;3.72;;;5.20;99.90;;;;;;5013194;28;20034;-83
2023/03/17 04:35:00;;;;;;;7.72;3.22;;;4.00;99.90;;;;;;5023537;28;20058;-83
2023/03/17 04:37:26;;;;;;;10.13;3.78;;;7.70;99.90;;;;;;5022192;28;20026;-84
2023/03/17 04:39:54;;;;;;;6.95;3.65;;;5.20;99.90;;;;;;5020447;28;20105;-81
2023/03/17 04:42:20;;;;;;;7.03;3.58;;;7.30;99.90;;;;;;5026194;28;20396;-83
2023/03/17 04:44:47;;;;;;;7.85;3.72;;;7.70;99.90;;;;;;5015603;28;20027;-82
2023/03/17 04:47:12;;;;;;;6.45;3.45;;;7.10;99.90;;;;;;5022145;28;20029;-82
2023/03/17 04:49:38;;;;;;;7.82;3.90;;;4.80;99.90;;;;;;5020585;28;20026;-82
2023/03/17 04:52:04;;;;;;;8.18;4.00;;;5.10;99.90;;;;;;5019387;28;20030;-86
2023/03/17 04:54:30;;;;;;;7.68;3.90;;;5.00;99.90;;;;;;5020800;28;20507;-82
2023/03/17 04:56:55;;;;;;;10.73;4.20;;;6.70;99.90;;;;;;5020634;28;20038;-83
2023/03/17 04:59:21;;;;;;;6.05;3.78;;;7.30;99.90;;;;;;5018094;28;20088;-84
2023/03/17 05:01:47;;;;;;;9.38;4.38;;;;;;;;;;5021870;28;20251;-82
2023/03/17 05:04:13;;;;;;;8.57;4.45;;;;;;;;;;5020332;28;20026;-82
2023/03/17 05:06:39;;;;;;;7.65;4.45;;;5.00;99.90;;;;;;5026093;28;20034;-82
2023/03/17 05:09:05;;;;;;;8.52;4.18;;;5.00;99.90;;;;;;5019534;28;20039;-85
2023/03/17 05:11:31;;;;;;;8.43;3.90;;;6.90;99.90;;;;;;5018143;28;20113;-84
2023/03/17 05:13:56;;;;;;;10.90;4.30;;;7.40;99.90;;;;;;5002190;28;20046;-84
2023/03/17 05:16:25;;;;;;;7.43;4.00;;;5.40;99.90;;;;;;5020745;28;20129;-82
2023/03/17 05:18:51;;;;;;;8.98;4.00;;;6.20;99.90;;;;;;5013945;28;20038;-83
2023/03/17 05:21:17;;;;;;;9.07;3.85;;;7.20;99.90;;;;;;5016387;28;20516;-84
2023/03/17 05:23:43;;;;;;;7.07;3.72;;;6.80;99.90;;;;;;5019320;28;20045;-83
2023/03/17 05:26:09;;;;;;;7.43;3.95;;;7.50;99.90;;;;;;5021490;28;20022;-82
2023/03/17 05:28:35;;;;;;;7.28;3.97;;;4.70;99.90;;;;;;5029525;28;20100;-83
2023/03/17 05:31:02;;;;;;;8.10;3.75;;;7.70;99.90;;;;;;5037164;28;20053;-82
2023/03/17 05:33:30;;;;;;;6.63;3.65;;;5.30;99.90;;;;;;5025015;28;20030;-83
2023/03/17 05:35:56;;;;;;;10.18;4.05;;;5.10;99.90;;;;;;5025342;28;20045;-83
2023/03/17 05:38:22;;;;;;;7.53;3.83;;;7.40;99.90;;;;;;5019905;28;20038;-82
2023/03/17 05:40:51;;;;;;;9.05;4.03;;;5.00;99.90;;;;;;5020455;28;20041;-83
2023/03/17 05:43:17;;;;;;;6.65;3.75;;;5.00;99.90;;;;;;5025163;28;20033;-89
2023/03/17 05:45:43;;;;;;;7.70;3.83;;;7.40;99.90;;;;;;5022744;28;20499;-83
2023/03/17 05:48:11;;;;;;;8.15;3.53;;;7.80;99.90;;;;;;5019333;28;20025;-82
2023/03/17 05:50:36;;;;;;;7.93;4.13;;;6.80;99.90;;;;;;5025401;28;20038;-87
2023/03/17 05:53:03;;;;;;;6.95;3.55;;;5.40;99.90;;;;;;5019975;28;20032;-82
2023/03/17 05:55:30;;;;;;;8.35;4.43;;;6.20;99.90;;;;;;5028794;28;20031;-82
2023/03/17 05:57:56;;;;;;;6.78;3.35;;;;;;;;;;5021382;28;20021;-82
2023/03/17 06:00:23;;;;;;;8.50;3.90;;;;;;;;;;5028773;28;20144;-83
2023/03/17 06:02:53;;;;;;;7.72;4.68;;;5.10;99.90;;;;;;5025520;28;20030;-82
2023/03/17 06:05:19;;;;;;;8.45;3.97;;;5.20;99.90;;;;;;5020538;28;20097;-81
2023/03/17 06:07:45;;;;;;;9.27;4.22;;;7.00;99.90;;;;;;5024438;28;20033;-87
2023/03/17 06:10:12;;;;;;;8.15;4.88;;;;;;;;;;5018908;28;20030;-81
2023/03/17 06:12:38;;;;;;;7.47;4.20;;;;;;;;;;5022910;28;20025;-81
2023/03/17 06:15:05;;;;;;;7.22;4.13;;;5.20;99.90;;;;;;5019989;28;20510;-83
2023/03/17 06:17:31;;;;;;;11.30;5.22;;;;;;;;;;5030542;28;20065;-83
2023/03/17 06:19:57;;;;;;;8.95;4.10;;;5.30;99.90;;;;;;5015719;28;20065;-83
2023/03/17 06:22:22;;;;;;;12.93;4.72;;;5.30;99.90;;;;;;5016735;28;21293;-83
2023/03/17 06:24:52;;;;;;;8.93;4.30;;;7.10;99.90;;;;;;5012951;28;20030;-80
2023/03/17 06:27:38;;;;;;;8.15;3.90;;;4.20;99.90;;;;;;5016935;28;20026;-84
2023/03/17 06:30:15;;;;;;;15.40;4.65;;;4.80;99.90;;;;;;5018051;28;20025;-83
2023/03/17 06:32:43;;;;;;;15.95;5.78;;;5.50;99.90;;;;;;5010937;28;20033;-81
2023/03/17 06:35:12;;;;;;;15.48;4.55;;;;;;;;;;5013506;28;20026;-81
2023/03/17 06:37:44;;;;;;;9.00;4.53;;;5.60;99.90;;;;;;5026390;28;20161;-82
2023/03/17 06:41:07;;;;;;;10.52;4.80;;;7.90;99.90;;;;;;5005670;28;20466;-86
2023/03/17 06:54:38;;;;;;;13.93;4.63;;;;;;;;;;5015423;28;20081;-82
2023/03/17 06:57:06;;;;;;;13.52;4.88;;;6.20;99.90;;;;;;5021165;28;20021;-86
2023/03/17 06:59:39;;;;;;;10.52;4.65;;;7.50;99.90;;;;;;5022782;28;20041;-84
2023/03/17 07:02:05;;;;;;;12.88;5.35;;;6.40;99.90;;;;;;5013009;28;20045;-85
2023/03/17 07:04:36;;;;;;;11.60;5.38;;;6.40;99.90;;;;;;5022342;28;20026;-87
2023/03/17 07:07:13;;;;;;;;;;;;;;;;;;;;;
2023/03/17 07:09:44;;;;;;;12.27;5.15;;;6.70;99.90;;;;;;5005198;28;20029;-86
2023/03/17 07:12:18;;;;;;;11.15;4.68;;;8.90;99.90;;;;;;5011738;28;20034;-85
2023/03/17 07:15:09;;;;;;;10.63;5.07;;;7.20;99.90;;;;;;5012603;28;20020;-86
2023/03/17 07:17:54;;;;;;;10.53;5.27;;;7.40;99.90;;;;;;5009692;28;20022;-87
2023/03/17 07:20:50;;;;;;;12.13;5.35;;;7.50;99.90;;;;;;5009080;28;20284;-83
2023/03/17 07:23:24;;;;;;;9.25;4.85;;;6.40;99.90;;;;;;4948059;28;20054;-89
2023/03/17 07:26:12;;;;;;;12.32;4.95;;;9.30;99.90;;;;;;5006839;28;20026;-83
2023/03/17 07:28:39;;;;;;;10.73;5.38;;;7.90;99.90;;;;;;5016545;28;20026;-87
2023/03/17 07:31:28;;;;;;;16.15;5.28;;;8.00;99.90;;;;;;5006645;28;20040;-86
2023/03/17 07:34:24;;;;;;;9.98;4.38;;;8.40;99.90;;;;;;5022314;28;20450;-85
2023/03/17 07:37:09;;;;;;;8.88;4.13;;;8.60;99.90;;;;;;5005781;28;20030;-87
2023/03/17 07:39:58;;;;;;;8.30;4.47;;;8.20;99.90;;;;;;4995177;28;20045;-84
2023/03/17 07:42:23;;;;;;;11.38;4.32;;;10.80;99.90;;;;;;5009717;28;20026;-85
2023/03/17 07:44:49;;;;;;;12.63;4.88;;;9.00;99.90;;;;;;5004478;28;20538;-86
2023/03/17 07:47:15;;;;;;;12.25;5.10;;;11.20;99.90;;;;;;4999648;28;20041;-85
2023/03/17 07:49:41;;;;;;;11.65;4.97;;;;;;;;;;5017475;28;20029;-85
2023/03/17 07:52:08;;;;;;;10.73;4.00;;;9.60;99.90;;;;;;5009909;28;20021;-85
2023/03/17 07:54:34;;;;;;;8.88;3.65;;;9.70;99.90;;;;;;5003317;28;20042;-89
2023/03/17 07:57:00;;;;;;;12.18;4.15;;;11.50;99.90;;;;;;5011061;28;20075;-87
2023/03/17 07:59:29;;;;;;;8.00;4.05;;;10.00;99.90;;;;;;5011309;28;20025;-85
2023/03/17 08:01:56;;;;;;;11.65;3.55;;;10.20;99.90;;;;;;5009440;28;20030;-87
2023/03/17 08:04:23;;;;;;;15.15;3.25;;;10.30;99.90;;;;;;4998651;28;20034;-86
2023/03/17 08:06:49;;;;;;;8.50;3.50;;;10.70;99.90;;;;;;5010251;28;20018;-83
2023/03/17 08:09:14;;;;;;;7.03;2.65;;;11.50;99.90;;;;;;5010972;28;20148;-87
2023/03/17 08:11:44;;;;;;;7.68;2.40;;;10.80;99.90;;;;;;4988459;28;20053;-87
2023/03/17 08:14:10;;;;;;;8.68;2.72;;;11.00;99.90;;;;;;5010207;28;20479;-84
2023/03/17 08:16:36;;;;;;;10.43;3.40;;;12.30;99.90;;;;;;5008362;28;20037;-84
2023/03/17 08:19:05;;;;;;;5.20;2.50;;;11.20;99.90;;;;;;5010894;28;20052;-83
2023/03/17 08:21:31;;;;;;;7.53;2.70;;;11.40;99.90;;;;;;5016646;28;20026;-86
2023/03/17 08:23:57;;;;;;;5.90;2.00;;;11.60;99.90;;;;;;5006384;28;20022;-86
2023/03/17 08:26:23;;;;;;;7.00;2.15;;;12.10;99.90;;;;;;5011068;28;20018;-86
2023/03/17 08:28:49;;;;;;;6.65;2.42;;;12.30;99.90;;;;;;5007344;28;20029;-85
2023/03/17 08:31:21;;;;;;;7.72;2.10;;;11.60;99.90;;;;;;5003723;28;20041;-84
2023/03/17 08:33:52;;;;;;;3.83;1.65;;;13.30;99.90;;;;;;5009032;28;20050;-87
2023/03/17 08:36:20;;;;;;;7.85;1.95;;;11.80;99.90;;;;;;5011790;28;20064;-85
2023/03/17 08:38:47;;;;;;;5.00;1.73;;;13.10;99.90;;;;;;5011154;28;20030;-84
2023/03/17 08:41:17;;;;;;;3.35;1.70;;;12.00;99.90;;;;;;5010110;28;20026;-86
2023/03/17 08:43:43;;;;;;;3.33;1.65;;;12.90;99.90;;;;;;5008057;28;20006;-85
2023/03/17 08:46:15;;;;;;;4.53;1.45;;;12.50;99.90;;;;;;5008016;28;20049;-85
2023/03/17 08:48:41;;;;;;;3.75;1.30;;;13.20;99.90;;;;;;5006104;28;20030;-85
2023/03/17 08:51:08;;;;;;;3.08;1.30;;;12.20;99.90;;;;;;5005789;28;20018;-82
2023/03/17 08:53:34;;;;;;;2.85;1.30;;;13.40;99.90;;;;;;5008332;28;20037;-86
2023/03/17 08:56:00;;;;;;;6.72;1.80;;;12.20;99.60;;;;;;5012016;28;20672;-86
2023/03/17 08:58:26;;;;;;;5.55;1.98;;;12.20;99.20;;;;;;4998445;28;20083;-85
2023/03/17 09:00:52;;;;;;;2.97;1.30;;;12.30;99.20;;;;;;5006802;28;20022;-88
2023/03/17 09:03:19;;;;;;;6.03;1.88;;;12.40;99.10;;;;;;5005449;28;20034;-83
2023/03/17 09:05:45;;;;;;;4.78;1.60;;;12.40;99.10;;;;;;4996833;28;20069;-86
2023/03/17 09:08:12;;;;;;;2.95;1.33;;;12.40;98.80;;;;;;5014706;28;20034;-84
2023/03/17 09:10:38;;;;;;;6.47;1.45;;;12.40;98.70;;;;;;5010689;28;20089;-87
2023/03/17 09:13:03;;;;;;;5.20;1.33;;;12.80;98.40;;;;;;5007915;28;20369;-82
2023/03/17 09:15:37;;;;;;;5.05;1.33;;;11.80;97.90;;;;;;5013528;28;20032;-83
2023/03/17 09:18:03;;;;;;;6.95;1.30;;;13.80;98.30;;;;;;5014862;28;21887;-87
2023/03/17 09:20:30;;;;;;;3.95;1.40;;;12.50;98.30;;;;;;5016130;28;20077;-87
2023/03/17 09:22:56;;;;;;;2.97;1.20;;;12.90;98.20;;;;;;5008941;28;20420;-84
2023/03/17 09:25:22;;;;;;;3.67;1.50;;;12.70;97.60;;;;;;5013976;28;20022;-85
2023/03/17 09:27:48;;;;;;;6.65;1.73;;;12.80;97.20;;;;;;5018851;28;20085;-84
2023/03/17 09:30:15;;;;;;;4.20;1.60;;;14.00;97.60;;;;;;5013495;28;20006;-84
2023/03/17 09:32:41;;;;;;;3.90;1.40;;;12.90;97.50;;;;;;5018982;28;20030;-86
2023/03/17 09:35:07;;;;;;;4.10;1.27;;;13.70;97.00;;;;;;5018403;28;20034;-85
2023/03/17 09:37:33;;;;;;;4.85;1.48;;;13.20;96.10;;;;;;5024779;28;20022;-82
2023/03/17 09:39:59;;;;;;;2.35;1.23;;;13.30;96.70;;;;;;5017407;28;20018;-87
2023/03/17 09:43:10;;;;;;;5.97;1.40;;;14.40;95.90;;;;;;5015250;28;20050;-87
2023/03/17 09:45:38;;;;;;;3.35;1.10;;;13.60;93.90;;;;;;4966329;28;20030;-87
2023/03/17 09:48:13;;;;;;;4.63;1.15;;;13.60;93.70;;;;;;5014890;28;20052;-85
2023/03/17 09:51:06;;;;;;;3.67;1.40;;;13.70;93.20;;;;;;5026711;28;20033;-85
2023/03/17 09:53:48;;;;;;;3.58;1.73;;;13.90;92.90;;;;;;5022822;28;20032;-86
2023/03/17 09:56:15;;;;;;;4.85;1.40;;;14.00;92.90;;;;;;5020791;28;20041;-87
2023/03/17 09:59:08;;;;;;;3.13;1.10;;;14.20;92.20;;;;;;5025831;28;20027;-85
2023/03/17 10:01:35;;;;;;;2.83;1.23;;;14.10;91.80;;;;;;5009802;28;20044;-85
2023/03/17 10:04:01;;;;;;;4.13;0.98;;;14.10;91.00;;;;;;5018079;28;20045;-85
2023/03/17 10:06:41;;;;;;;4.18;1.20;;;14.20;91.10;;;;;;5020213;28;20022;-86
2023/03/17 10:09:34;;;;;;;4.13;1.10;;;15.00;91.40;;;;;;5020387;28;20053;-86
2023/03/17 10:12:37;;;;;;;1.55;0.80;;;14.10;90.60;;;;;;5028454;28;20040;-87
2023/03/17 10:15:26;;;;;;;2.72;1.48;;;14.20;90.40;;;;;;5009036;28;20042;-83
2023/03/17 10:17:56;;;;;;;3.08;1.05;;;14.20;90.10;;;;;;5011469;28;20117;-84
2023/03/17 10:20:27;;;;;;;1.73;0.95;;;14.30;90.00;;;;;;5005931;28;20160;-84
2023/03/17 10:22:57;;;;;;;2.92;1.10;;;14.30;89.10;;;;;;5008527;28;20026;-85
2023/03/17 10:25:31;;;;;;;4.60;1.73;;;14.40;88.90;;;;;;5006964;28;20529;-87
2023/03/17 10:28:03;;;;;;;6.03;1.50;;;14.50;88.30;;;;;;5006801;28;20103;-84
2023/03/17 10:30:34;;;;;;;5.18;1.10;;;14.50;88.10;;;;;;5008843;28;20026;-84
2023/03/17 10:33:05;;;;;;;9.13;1.40;;;14.60;88.60;;;;;;5013923;28;20018;-85
2023/03/17 10:35:35;;;;;;;3.92;1.00;;;14.60;87.20;;;;;;5005421;28;20373;-85
2023/03/17 10:38:21;;;;;;;2.70;1.03;;;14.70;86.70;;;;;;5007074;28;20068;-87
2023/03/17 10:41:12;;;;;;;3.63;1.10;;;14.60;86.10;;;;;;5019509;28;20335;-83
2023/03/17 10:43:45;;;;;;;4.03;1.08;;;14.70;86.40;;;;;;5008050;28;20545;-86
2023/03/17 10:46:23;;;;;;;4.00;1.42;;;15.80;86.30;;;;;;5008393;28;20042;-85
2023/03/17 10:49:01;;;;;;;4.82;1.30;;;14.90;84.70;;;;;;5024533;28;20026;-87
2023/03/17 10:51:33;;;;;;;4.57;1.10;;;13.90;83.00;;;;;;5005837;28;20494;-88
2023/03/17 10:54:01;;;;;;;3.78;0.98;;;16.00;82.70;;;;;;5012018;28;20026;-90
2023/03/17 10:56:31;;;;;;;3.95;1.30;;;15.50;82.60;;;;;;5013297;28;20026;-87
2023/03/17 10:59:04;;;;;;;1.98;1.17;;;15.10;81.40;;;;;;5013767;28;20030;-85
2023/03/17 11:01:41;;;;;;;4.70;1.73;;;15.20;81.70;;;;;;5007398;28;20054;-85
2023/03/17 11:04:32;;;;;;;3.28;1.40;;;15.30;81.30;;;;;;5009300;28;20018;-88
2023/03/17 11:06:59;;;;;;;;;;;15.10;79.70;;;;;;5012687;28;20033;-86
2023/03/17 11:09:29;;;;;;;3.33;1.20;;;16.00;80.30;;;;;;5015798;28;19924;-84
2023/03/17 11:12:26;;;;;;;3.00;1.05;;;15.40;81.00;;;;;;5010307;28;20029;-86
2023/03/17 11:15:02;;;;;;;2.95;1.10;;;15.10;79.50;;;;;;5009652;28;20394;-86
2023/03/17 11:17:38;;;;;;;3.50;1.00;;;15.10;78.90;;;;;;5010761;28;20048;-86
2023/03/17 11:20:04;;;;;;;4.65;1.20;;;15.10;79.40;;;;;;5003876;28;20089;-86
2023/03/17 11:22:42;;;;;;;4.53;1.30;;;15.10;79.70;;;;;;5010605;28;20053;-86
2023/03/17 11:25:23;;;;;;;2.97;1.13;;;15.10;79.30;;;;;;5011817;28;20033;-87
2023/03/17 11:28:06;;;;;;;1.52;0.80;;;15.10;79.60;;;;;;5014731;28;20030;-88
2023/03/17 11:30:35;;;;;;;2.85;1.23;;;15.20;79.10;;;;;;4995023;28;20045;-84
2023/03/17 11:33:56;;;;;;;3.28;1.00;;;15.20;78.70;;;;;;5015959;28;20014;-87
2023/03/17 11:36:50;;;;;;;2.65;1.30;;;15.20;79.00;;;;;;4998439;28;20029;-85
2023/03/17 11:39:31;;;;;;;3.63;0.98;;;15.40;79.50;;;;;;5007265;28;20036;-85
2023/03/17 11:42:22;;;;;;;5.00;1.10;;;15.40;78.70;;;;;;5012757;28;20086;-88
2023/03/17 11:45:08;;;;;;;2.58;1.30;;;15.60;78.40;;;;;;5011316;28;20054;-88
2023/03/17 11:47:56;;;;;;;3.95;1.20;;;15.70;78.20;;;;;;5006686;28;20499;-86
2023/03/17 11:50:56;;;;;;;4.32;1.42;;;15.80;77.40;;;;;;5012266;28;20030;-85
2023/03/17 11:53:57;;;;;;;5.18;1.00;;;15.90;76.70;;;;;;5007290;28;20027;-85
2023/03/17 11:56:37;;;;;;;2.67;1.25;;;16.00;76.60;;;;;;5013384;28;20090;-86
2023/03/17 11:59:12;;;;;;;2.10;1.00;;;16.10;75.50;;;;;;5013402;28;20036;-84
2023/03/17 12:01:58;;;;;;;3.10;1.20;;;16.00;75.10;;;;;;5014188;28;20026;-85
2023/03/17 12:04:49;;;;;;;9.27;1.33;;;16.20;74.60;;;;;;5014208;28;20022;-87
2023/03/17 12:07:21;;;;;;;3.78;1.27;;;16.30;73.70;;;;;;4998805;28;20038;-86
2023/03/17 12:09:54;;;;;;;6.22;1.30;;;16.30;73.00;;;;;;5012550;28;20026;-84
2023/03/17 12:12:27;;;;;;;2.33;1.10;;;16.20;72.40;;;;;;5011877;28;20038;-85
2023/03/17 12:14:55;;;;;;;1.67;0.70;;;16.20;73.10;;;;;;5012409;28;20025;-85
2023/03/17 12:17:38;;;;;;;3.22;1.13;;;16.30;73.00;;;;;;5016676;28;20022;-84
2023/03/17 12:20:17;;;;;;;3.83;1.13;;;16.40;72.70;;;;;;5008617;28;20116;-84
2023/03/17 12:22:53;;;;;;;2.60;1.02;;;16.40;72.70;;;;;;5007833;28;20021;-85
2023/03/17 12:25:33;;;;;;;3.10;1.00;;;16.50;72.40;;;;;;5007263;28;20053;-90
2023/03/17 12:28:17;;;;;;;3.33;1.20;;;16.50;72.60;;;;;;5011559;28;20676;-86
2023/03/17 12:30:54;;;;;;;3.65;1.05;;;18.10;73.70;;;;;;5007890;28;20054;-89
2023/03/17 12:33:47;;;;;;;2.65;0.90;;;16.50;72.10;;;;;;5012063;28;20018;-87
2023/03/17 12:36:15;;;;;;;2.28;1.25;;;16.50;71.40;;;;;;5013596;28;20464;-87
2023/03/17 12:39:00;;;;;;;2.20;1.15;;;16.40;71.60;;;;;;5013840;28;20042;-86
2023/03/17 12:41:48;;;;;;;2.28;0.80;;;16.40;71.40;;;;;;5018125;28;20022;-87
2023/03/17 12:44:51;;;;;;;1.45;0.77;;;16.40;71.40;;;;;;5032115;28;20029;-85
2023/03/17 12:47:41;;;;;;;2.20;1.00;;;16.30;72.00;;;;;;5006873;28;20045;-86
2023/03/17 12:50:42;;;;;;;6.45;1.30;;;16.30;73.40;;;;;;5016826;28;20025;-86
2023/03/17 12:53:28;;;;;;;7.25;1.40;;;16.30;72.30;;;;;;4995556;28;20594;-86
2023/03/17 12:55:57;;;;;;;11.65;5.10;;;16.20;71.70;;;;;;5013076;28;20052;-84
2023/03/17 12:58:42;;;;;;;2.73;1.10;;;16.10;72.30;;;;;;5013465;28;20034;-84
2023/03/17 13:01:34;;;;;;;4.05;1.35;;;16.20;72.20;;;;;;5028789;28;20018;-86
2023/03/17 13:04:15;;;;;;;3.38;1.15;;;16.20;72.10;;;;;;5019684;28;20018;-86
2023/03/17 13:06:43;;;;;;;2.83;0.90;;;16.20;71.70;;;;;;5015896;28;20111;-86
2023/03/17 13:09:31;;;;;;;3.65;1.00;;;16.10;72.10;;;;;;5017461;28;20041;-86
2023/03/17 13:11:58;;;;;;;4.55;1.30;;;16.10;72.10;;;;;;5019850;28;20021;-84
2023/03/17 13:14:43;;;;;;;5.35;1.38;;;16.20;72.60;;;;;;5022554;28;20014;-88
2023/03/17 13:17:22;;;;;;;3.58;1.00;;;16.20;72.60;;;;;;5031704;28;20024;-89
2023/03/17 13:19:57;;;;;;;1.88;1.02;;;16.20;72.90;;;;;;5025571;28;20018;-83
2023/03/17 13:22:33;;;;;;;3.83;1.58;;;16.20;73.10;;;;;;5003016;28;20018;-84
2023/03/17 13:25:33;;;;;;;3.47;1.20;;;16.10;73.20;;;;;;5012207;28;20018;-87
2023/03/17 13:28:46;;;;;;;4.93;1.67;;;16.20;73.70;;;;;;5007145;28;20034;-85
2023/03/17 13:31:30;;;;;;;6.53;1.55;;;16.20;73.40;;;;;;4995225;28;20041;-85
2023/03/17 13:34:05;;;;;;;5.47;1.75;;;16.20;74.30;;;;;;5005857;28;20068;-83
2023/03/17 13:36:38;;;;;;;6.28;1.50;;;16.30;73.70;;;;;;5030711;28;20034;-86
2023/03/17 13:39:35;;;;;;;3.60;1.20;;;16.20;74.30;;;;;;5008808;28;20081;-86
2023/03/17 13:42:12;;;;;;;2.53;1.35;;;16.20;73.70;;;;;;5014826;28;20022;-82